createdAt,value
2022-09-23T00:02:11.755Z,61.07
2022-09-23T00:05:14.651Z,61.20
2022-09-23T00:08:16.852Z,60.98
2022-09-23T00:11:24.294Z,61.90
2022-09-23T00:14:27.157Z,61.73
2022-09-23T00:17:29.430Z,61.08
2022-09-23T00:20:33.992Z,61.92
2022-09-23T00:23:36.505Z,62.01
2022-09-23T00:26:38.731Z,61.96
2022-09-23T00:29:41.272Z,61.20
2022-09-23T00:32:43.526Z,61.37
2022-09-23T00:35:45.941Z,61.54
2022-09-23T00:38:48.375Z,61.77
2022-09-23T00:41:50.658Z,62.05
2022-09-23T00:44:58.484Z,62.70
2022-09-23T00:48:02.294Z,62.82
2022-09-23T00:51:04.915Z,62.00
2022-09-23T00:54:07.877Z,61.78
2022-09-23T00:57:11.226Z,61.61
2022-09-23T01:00:14.099Z,61.77
2022-09-23T01:03:16.404Z,62.07
2022-09-23T01:06:18.653Z,61.41
2022-09-23T01:09:22.320Z,61.54
2022-09-23T01:12:39.601Z,61.90
2022-09-23T01:15:49.280Z,61.83
2022-09-23T01:19:01.869Z,62.13
2022-09-23T01:22:11.004Z,62.64
2022-09-23T01:25:28.760Z,62.31
2022-09-23T01:28:43.390Z,62.57
2022-09-23T01:32:00.288Z,62.36
2022-09-23T01:35:08.416Z,62.42
2022-09-23T01:38:13.215Z,62.58
2022-09-23T01:41:24.228Z,62.50
2022-09-23T01:44:30.811Z,62.18
2022-09-23T01:47:40.274Z,62.61
2022-09-23T01:50:59.228Z,62.66
2022-09-23T01:54:15.959Z,62.78
2022-09-23T01:57:34.479Z,62.79
2022-09-23T02:00:41.030Z,62.94
2022-09-23T02:04:22.503Z,62.77
2022-09-23T02:07:53.706Z,62.94
2022-09-23T02:10:59.112Z,63.10
2022-09-23T02:14:15.482Z,63.42
2022-09-23T02:17:24.721Z,63.11
2022-09-23T02:20:33.000Z,63.02
2022-09-23T02:23:45.018Z,63.13
2022-09-23T02:26:51.801Z,63.13
2022-09-23T02:30:09.781Z,62.85
2022-09-23T02:33:21.315Z,62.88
2022-09-23T02:36:32.339Z,63.93
2022-09-23T02:39:42.790Z,63.87
2022-09-23T02:42:44.944Z,63.85
2022-09-23T02:45:47.665Z,63.68
2022-09-23T02:48:53.507Z,63.95
2022-09-23T02:51:56.892Z,63.69
2022-09-23T02:55:00.926Z,63.56
2022-09-23T02:58:03.843Z,63.21
2022-09-23T03:01:11.697Z,63.36
2022-09-23T03:04:32.086Z,63.30
2022-09-23T03:07:53.044Z,63.29
2022-09-23T03:11:07.522Z,63.19
2022-09-23T03:14:19.853Z,63.86
2022-09-23T03:17:27.577Z,63.33
2022-09-23T03:20:37.369Z,63.18
2022-09-23T03:23:41.198Z,62.93
2022-09-23T03:26:45.864Z,63.27
2022-09-23T03:29:49.742Z,63.29
2022-09-23T03:32:52.375Z,63.05
2022-09-23T03:36:24.473Z,63.32
2022-09-23T03:39:44.504Z,62.00
2022-09-23T03:42:50.189Z,62.01
2022-09-23T03:45:57.571Z,61.76
2022-09-23T03:49:07.204Z,60.99
2022-09-23T03:52:09.778Z,61.42
2022-09-23T03:55:12.049Z,62.37
2022-09-23T03:58:14.577Z,61.19
2022-09-23T04:01:16.918Z,61.88
2022-09-23T04:04:19.237Z,61.20
2022-09-23T04:07:21.481Z,61.71
2022-09-23T04:10:24.122Z,61.93
2022-09-23T04:13:26.405Z,62.61
2022-09-23T04:16:29.114Z,62.50
2022-09-23T04:19:31.367Z,62.98
2022-09-23T04:22:35.060Z,62.69
2022-09-23T04:25:44.773Z,62.40
2022-09-23T04:28:46.975Z,61.49
2022-09-23T04:31:50.059Z,61.71
2022-09-23T04:34:52.329Z,61.72
2022-09-23T04:37:54.534Z,62.12
2022-09-23T04:40:57.101Z,62.73
2022-09-23T04:43:59.419Z,62.16
2022-09-23T04:47:01.731Z,62.46
2022-09-23T04:50:04.177Z,61.92
2022-09-23T04:53:06.480Z,62.58
2022-09-23T04:56:12.043Z,62.75
2022-09-23T04:59:14.426Z,62.72
2022-09-23T05:02:16.889Z,62.92
2022-09-23T05:05:21.053Z,62.52
2022-09-23T05:08:23.266Z,62.58
2022-09-23T05:11:26.147Z,62.56
2022-09-23T05:14:28.343Z,62.46
2022-09-23T05:17:31.297Z,62.42
2022-09-23T05:20:33.539Z,61.54
2022-09-23T05:23:36.432Z,60.41
2022-09-23T05:26:38.696Z,60.03
2022-09-23T05:29:41.100Z,60.09
2022-09-23T05:32:43.481Z,59.81
2022-09-23T05:35:48.633Z,60.21
2022-09-23T05:38:51.439Z,59.77
2022-09-23T05:41:55.622Z,60.04
2022-09-23T05:44:57.828Z,59.88
2022-09-23T05:48:00.007Z,59.64
2022-09-23T05:51:02.989Z,60.16
2022-09-23T05:54:05.775Z,60.15
2022-09-23T05:57:08.132Z,59.16
2022-09-23T06:00:11.011Z,58.40
2022-09-23T06:03:20.867Z,57.95
2022-09-23T06:06:31.371Z,56.80
2022-09-23T06:09:36.486Z,57.28
2022-09-23T06:12:39.199Z,56.44
2022-09-23T06:15:41.768Z,55.79
2022-09-23T06:18:45.303Z,55.34
2022-09-23T06:21:48.815Z,55.43
2022-09-23T06:24:51.020Z,54.61
2022-09-23T06:27:57.200Z,54.85
2022-09-23T06:31:00.726Z,54.70
2022-09-23T06:34:10.465Z,54.08
2022-09-23T06:37:19.795Z,53.78
2022-09-23T06:40:22.845Z,52.88
2022-09-23T06:43:26.021Z,52.38
2022-09-23T06:46:28.314Z,51.86
2022-09-23T06:49:31.520Z,50.80
2022-09-23T06:52:34.437Z,49.75
2022-09-23T06:55:36.662Z,49.47
2022-09-23T06:58:39.201Z,49.23
2022-09-23T07:01:41.700Z,48.66
2022-09-23T07:04:44.102Z,47.09
2022-09-23T07:07:46.397Z,49.17
2022-09-23T07:11:02.268Z,47.21
2022-09-23T07:14:04.620Z,45.26
2022-09-23T07:17:07.355Z,44.92
2022-09-23T07:20:11.511Z,44.90
2022-09-23T07:23:13.765Z,43.76
2022-09-23T07:26:18.053Z,44.94
2022-09-23T07:29:20.313Z,42.67
2022-09-23T07:32:23.234Z,42.60
2022-09-23T07:35:28.136Z,42.07
2022-09-23T07:38:31.439Z,42.81
2022-09-23T07:41:34.094Z,41.49
2022-09-23T07:44:36.322Z,41.25
2022-09-23T07:47:39.977Z,41.35
2022-09-23T07:50:42.230Z,42.24
2022-09-23T07:53:48.363Z,41.80
2022-09-23T07:56:50.568Z,39.90
2022-09-23T07:59:53.041Z,39.45
2022-09-23T08:02:55.222Z,40.25
2022-09-23T08:06:05.519Z,38.85
2022-09-23T08:09:07.738Z,38.41
2022-09-23T08:12:17.145Z,38.88
2022-09-23T08:15:19.359Z,38.71
2022-09-23T08:18:23.938Z,39.00
2022-09-23T08:21:26.177Z,37.82
2022-09-23T08:24:30.400Z,38.42
2022-09-23T08:27:33.399Z,38.00
2022-09-23T08:30:35.764Z,37.63
2022-09-23T08:33:37.993Z,36.78
2022-09-23T08:36:40.163Z,37.06
2022-09-23T08:39:42.373Z,39.94
2022-09-23T08:42:45.697Z,38.88
2022-09-23T08:45:48.115Z,36.44
2022-09-23T08:48:50.486Z,37.00
2022-09-23T08:51:54.892Z,37.53
2022-09-23T08:54:57.170Z,37.59
2022-09-23T08:58:27.846Z,37.70
2022-09-23T09:01:46.029Z,38.36
2022-09-23T09:04:52.497Z,38.05
2022-09-23T09:07:58.077Z,38.17
2022-09-23T09:11:00.873Z,37.05
2022-09-23T09:14:18.250Z,38.16
2022-09-23T09:17:39.905Z,36.18
2022-09-23T09:21:02.751Z,36.87
2022-09-23T09:24:27.060Z,38.05
2022-09-23T09:27:29.385Z,37.84
2022-09-23T09:30:33.038Z,37.50
2022-09-23T09:33:47.662Z,37.41
2022-09-23T09:37:07.533Z,38.32
2022-09-23T09:40:13.817Z,39.82
2022-09-23T09:43:23.250Z,39.56
2022-09-23T09:47:01.456Z,39.05
2022-09-23T09:50:10.614Z,38.21
2022-09-23T09:53:35.849Z,38.05
2022-09-23T09:56:39.982Z,38.76
2022-09-23T09:59:44.148Z,36.39
2022-09-23T10:02:46.812Z,36.46
2022-09-23T10:05:52.368Z,35.88
2022-09-23T10:09:13.860Z,36.77
2022-09-23T10:12:18.783Z,35.56
2022-09-23T10:15:44.892Z,36.05
2022-09-23T10:18:47.471Z,35.92
2022-09-23T10:22:00.229Z,34.21
2022-09-23T10:25:07.991Z,34.71
2022-09-23T10:28:32.276Z,35.90
2022-09-23T10:31:35.932Z,36.32
2022-09-23T10:34:43.481Z,35.89
2022-09-23T10:37:52.938Z,36.62
2022-09-23T10:41:15.688Z,37.19
2022-09-23T10:44:50.294Z,36.56
2022-09-23T10:48:21.830Z,36.26
2022-09-23T10:51:33.659Z,37.91
2022-09-23T10:54:58.258Z,34.96
2022-09-23T10:58:10.407Z,35.56
2022-09-23T11:01:17.204Z,33.68
2022-09-23T11:04:37.197Z,34.18
2022-09-23T11:07:45.117Z,34.17
2022-09-23T11:11:11.529Z,33.44
2022-09-23T11:14:25.950Z,34.25
2022-09-23T11:17:35.224Z,32.20
2022-09-23T11:21:04.736Z,33.03
2022-09-23T11:24:22.153Z,32.52
2022-09-23T11:27:39.370Z,33.58
2022-09-23T11:31:07.275Z,32.23
2022-09-23T11:34:26.052Z,32.94
2022-09-23T11:37:41.241Z,31.68
2022-09-23T11:40:46.627Z,32.61
2022-09-23T11:43:53.478Z,34.01
2022-09-23T11:47:07.763Z,32.67
2022-09-23T11:50:25.789Z,33.40
2022-09-23T11:53:38.231Z,34.58
2022-09-23T11:56:48.257Z,33.58
2022-09-23T11:59:57.301Z,34.88
2022-09-23T12:03:06.020Z,34.55
2022-09-23T12:06:16.124Z,34.57
2022-09-23T12:09:56.787Z,36.70
2022-09-23T12:13:00.939Z,34.95
2022-09-23T12:16:25.049Z,35.93
2022-09-23T12:19:33.255Z,37.37
2022-09-23T12:22:39.174Z,35.65
2022-09-23T12:25:54.895Z,35.18
2022-09-23T12:29:01.592Z,35.75
2022-09-23T12:32:09.975Z,35.45
2022-09-23T12:35:32.229Z,37.11
2022-09-23T12:39:04.406Z,36.93
2022-09-23T12:42:15.655Z,33.75
2022-09-23T12:45:28.234Z,34.04
2022-09-23T12:49:08.259Z,35.01
2022-09-23T12:52:14.186Z,35.15
2022-09-23T12:55:23.231Z,35.37
2022-09-23T12:58:38.344Z,35.68
2022-09-23T13:01:41.115Z,36.36
2022-09-23T13:05:21.800Z,35.86
2022-09-23T13:08:25.037Z,35.64
2022-09-23T13:11:29.417Z,35.29
2022-09-23T13:14:32.803Z,36.74
2022-09-23T13:17:39.830Z,37.38
2022-09-23T13:20:42.058Z,35.31
2022-09-23T13:24:12.804Z,34.61
2022-09-23T13:27:38.204Z,34.23
2022-09-23T13:30:49.286Z,32.74
2022-09-23T13:34:00.754Z,33.82
2022-09-23T13:37:22.475Z,33.64
2022-09-23T13:40:29.423Z,33.08
2022-09-23T13:43:41.366Z,32.48
2022-09-23T13:46:47.503Z,34.37
2022-09-23T13:49:49.916Z,35.15
2022-09-23T13:53:00.201Z,34.71
2022-09-23T13:56:10.184Z,35.51
2022-09-23T13:59:41.030Z,35.99
2022-09-23T14:02:44.061Z,34.87
2022-09-23T14:05:46.507Z,35.25
2022-09-23T14:08:50.292Z,35.80
2022-09-23T14:11:52.694Z,36.75
2022-09-23T14:14:55.036Z,36.89
2022-09-23T14:18:06.466Z,34.32
2022-09-23T14:21:30.431Z,36.09
2022-09-23T14:24:37.036Z,37.49
2022-09-23T14:27:41.048Z,34.85
2022-09-23T14:30:46.204Z,35.03
2022-09-23T14:33:48.527Z,35.43
2022-09-23T14:37:09.405Z,35.13
2022-09-23T14:40:18.243Z,35.74
2022-09-23T14:43:25.842Z,35.42
2022-09-23T14:46:30.271Z,38.36
2022-09-23T14:49:32.769Z,37.33
2022-09-23T14:52:34.975Z,37.80
2022-09-23T14:55:37.293Z,37.02
2022-09-23T14:58:57.115Z,39.66
2022-09-23T15:01:59.335Z,38.06
2022-09-23T15:05:31.231Z,38.74
2022-09-23T15:08:33.897Z,39.51
2022-09-23T15:11:36.320Z,40.55
2022-09-23T15:14:41.598Z,41.06
2022-09-23T15:17:44.325Z,40.85
2022-09-23T15:21:07.510Z,39.87
2022-09-23T15:24:36.358Z,40.75
2022-09-23T15:27:38.582Z,40.65
2022-09-23T15:30:41.278Z,38.88
2022-09-23T15:33:50.717Z,39.25
2022-09-23T15:36:54.085Z,38.87
2022-09-23T15:39:56.356Z,42.71
2022-09-23T15:43:01.263Z,39.39
2022-09-23T15:46:08.982Z,42.16
2022-09-23T15:49:28.422Z,41.31
2022-09-23T15:52:30.633Z,39.51
2022-09-23T15:55:33.799Z,41.42
2022-09-23T15:58:36.049Z,41.06
2022-09-23T16:01:38.828Z,42.62
2022-09-23T16:04:41.092Z,42.82
2022-09-23T16:07:43.331Z,44.02
2022-09-23T16:10:45.583Z,44.96
2022-09-23T16:13:47.850Z,45.97
2022-09-23T16:16:50.148Z,46.31
2022-09-23T16:19:55.883Z,45.47
2022-09-23T16:23:01.479Z,46.65
2022-09-23T16:26:26.985Z,45.16
2022-09-23T16:29:29.259Z,45.93
2022-09-23T16:32:31.492Z,47.02
2022-09-23T16:35:33.822Z,46.50
2022-09-23T16:38:36.121Z,45.42
2022-09-23T16:41:38.453Z,45.81
2022-09-23T16:44:41.560Z,46.25
2022-09-23T16:47:45.301Z,45.22
2022-09-23T16:50:47.774Z,45.03
2022-09-23T16:53:51.102Z,45.08
2022-09-23T16:56:55.213Z,47.51
2022-09-23T17:00:16.122Z,47.41
2022-09-23T17:03:37.010Z,47.31
2022-09-23T17:06:50.063Z,45.81
2022-09-23T17:09:52.622Z,47.33
2022-09-23T17:12:54.867Z,47.88
2022-09-23T17:15:57.190Z,46.44
2022-09-23T17:19:00.410Z,48.10
2022-09-23T17:22:02.711Z,48.72
2022-09-23T17:25:05.426Z,49.54
2022-09-23T17:28:07.668Z,47.23
2022-09-23T17:31:09.977Z,47.19
2022-09-23T17:34:12.864Z,49.84
2022-09-23T17:37:15.114Z,49.95
2022-09-23T17:40:18.032Z,51.31
2022-09-23T17:43:25.336Z,51.04
2022-09-23T17:46:30.087Z,50.90
2022-09-23T17:49:35.174Z,52.84
2022-09-23T17:52:37.400Z,52.74
2022-09-23T17:55:39.657Z,52.93
2022-09-23T17:58:42.661Z,53.47
2022-09-23T18:01:44.939Z,54.94
2022-09-23T18:04:47.295Z,54.51
